createdAt,value
2018-06-02T00:01:17.227Z,22.55
2018-06-02T00:03:43.177Z,22.65
2018-06-02T00:06:09.137Z,22.96
2018-06-02T00:08:35.104Z,22.98
2018-06-02T00:11:01.088Z,22.89
2018-06-02T00:13:27.014Z,22.84
2018-06-02T00:15:52.961Z,22.92
2018-06-02T00:18:18.904Z,23.01
2018-06-02T00:20:44.839Z,23.15
2018-06-02T00:23:10.793Z,22.84
2018-06-02T00:25:36.768Z,22.66
2018-06-02T00:28:02.726Z,22.38
2018-06-02T00:30:28.677Z,22.49
2018-06-02T00:32:54.613Z,22.89
2018-06-02T00:35:20.595Z,22.79
2018-06-02T00:37:46.522Z,23.00
2018-06-02T00:40:12.506Z,23.07
2018-06-02T00:42:38.460Z,22.94
2018-06-02T00:45:04.393Z,23.04
2018-06-02T00:47:30.371Z,22.69
2018-06-02T00:49:56.324Z,23.13
2018-06-02T00:52:22.272Z,22.92
2018-06-02T00:54:48.219Z,23.01
2018-06-02T00:57:14.188Z,23.06
2018-06-02T00:59:40.137Z,22.90
2018-06-02T01:02:06.085Z,23.13
2018-06-02T01:04:32.029Z,23.29
2018-06-02T01:06:57.992Z,23.36
2018-06-02T01:09:24.464Z,23.23
2018-06-02T01:11:50.394Z,23.52
2018-06-02T01:14:16.369Z,23.31
2018-06-02T01:16:42.322Z,23.50
2018-06-02T01:19:08.279Z,23.31
2018-06-02T01:21:34.226Z,23.51
2018-06-02T01:24:00.180Z,23.38
2018-06-02T01:26:26.153Z,23.51
2018-06-02T01:28:52.115Z,23.46
2018-06-02T01:31:18.072Z,23.03
2018-06-02T01:33:44.016Z,22.91
2018-06-02T01:36:09.962Z,22.94
2018-06-02T01:38:35.894Z,23.03
2018-06-02T01:41:01.832Z,23.06
2018-06-02T01:43:27.757Z,23.41
2018-06-02T01:45:53.691Z,23.34
2018-06-02T01:48:19.622Z,23.07
2018-06-02T01:50:45.583Z,22.79
2018-06-02T01:53:11.522Z,23.08
2018-06-02T01:55:37.451Z,23.03
2018-06-02T01:58:03.385Z,22.99
2018-06-02T02:00:29.334Z,23.12
2018-06-02T02:02:55.284Z,22.93
2018-06-02T02:05:21.415Z,22.93
2018-06-02T02:07:47.370Z,22.68
2018-06-02T02:10:13.305Z,22.41
2018-06-02T02:12:39.258Z,22.41
2018-06-02T02:15:05.204Z,22.65
2018-06-02T02:17:31.288Z,22.49
2018-06-02T02:19:57.280Z,22.67
2018-06-02T02:22:23.235Z,22.78
2018-06-02T02:24:49.177Z,22.83
2018-06-02T02:27:15.120Z,22.95
2018-06-02T02:29:41.088Z,22.63
2018-06-02T02:32:07.032Z,22.47
2018-06-02T02:34:32.982Z,22.31
2018-06-02T02:36:58.926Z,22.42
2018-06-02T02:39:24.879Z,22.49
2018-06-02T02:41:50.857Z,22.48
2018-06-02T02:44:16.806Z,22.42
2018-06-02T02:46:42.742Z,22.59
2018-06-02T02:49:08.678Z,22.42
2018-06-02T02:51:34.615Z,22.52
2018-06-02T02:54:00.537Z,22.56
2018-06-02T02:56:26.585Z,22.50
2018-06-02T02:58:52.540Z,22.44
2018-06-02T03:01:18.490Z,22.53
2018-06-02T03:03:44.459Z,22.62
2018-06-02T03:06:10.394Z,22.86
2018-06-02T03:08:36.317Z,22.73
2018-06-02T03:11:02.249Z,22.68
2018-06-02T03:13:28.212Z,22.47
2018-06-02T03:15:54.158Z,22.38
2018-06-02T03:18:20.111Z,22.28
2018-06-02T03:20:46.062Z,22.26
2018-06-02T03:23:12.029Z,21.98
2018-06-02T03:25:37.980Z,22.30
2018-06-02T03:28:03.930Z,22.09
2018-06-02T03:30:29.896Z,22.49
2018-06-02T03:32:55.837Z,22.21
2018-06-02T03:35:21.801Z,22.56
2018-06-02T03:37:47.756Z,22.32
2018-06-02T03:40:13.711Z,22.43
2018-06-02T03:42:39.662Z,22.54
2018-06-02T03:45:05.617Z,22.66
2018-06-02T03:47:31.569Z,22.60
2018-06-02T03:49:57.556Z,22.64
2018-06-02T03:52:23.491Z,22.40
2018-06-02T03:54:49.452Z,22.51
2018-06-02T03:57:15.379Z,22.76
2018-06-02T03:59:41.351Z,22.45
2018-06-02T04:02:07.312Z,22.25
2018-06-02T04:04:33.276Z,22.42
2018-06-02T04:06:59.217Z,22.83
2018-06-02T04:09:25.222Z,22.71
2018-06-02T04:11:51.176Z,22.49
2018-06-02T04:14:17.132Z,22.37
2018-06-02T04:16:43.104Z,22.51
2018-06-02T04:19:09.070Z,22.59
2018-06-02T04:21:35.016Z,22.38
2018-06-02T04:24:01.000Z,22.20
2018-06-02T04:26:26.960Z,22.35
2018-06-02T04:28:52.948Z,22.36
2018-06-02T04:31:18.869Z,22.50
2018-06-02T04:33:44.818Z,22.51
2018-06-02T04:36:10.790Z,22.57
2018-06-02T04:38:36.768Z,22.47
2018-06-02T04:41:02.748Z,22.22
2018-06-02T04:43:28.707Z,22.58
2018-06-02T04:45:54.677Z,22.38
2018-06-02T04:48:20.666Z,22.33
2018-06-02T04:50:46.628Z,22.21
2018-06-02T04:53:12.585Z,22.07
2018-06-02T04:55:38.561Z,22.31
2018-06-02T04:58:04.516Z,22.42
2018-06-02T05:00:30.471Z,22.37
2018-06-02T05:02:56.411Z,22.51
2018-06-02T05:05:23.094Z,22.12
2018-06-02T05:07:49.070Z,22.19
2018-06-02T05:10:15.052Z,22.46
2018-06-02T05:12:40.989Z,22.32
2018-06-02T05:15:07.026Z,22.19
2018-06-02T05:17:33.015Z,22.36
2018-06-02T05:19:58.981Z,21.95
2018-06-02T05:22:24.935Z,22.19
2018-06-02T05:24:50.897Z,22.19
2018-06-02T05:27:16.859Z,22.32
2018-06-02T05:29:42.805Z,22.48
2018-06-02T05:32:08.817Z,22.50
2018-06-02T05:34:34.798Z,22.79
2018-06-02T05:37:00.761Z,22.62
2018-06-02T05:39:26.707Z,22.39
2018-06-02T05:41:52.661Z,22.56
2018-06-02T05:44:18.631Z,22.74
2018-06-02T05:46:44.592Z,23.06
2018-06-02T05:49:10.534Z,23.38
2018-06-02T05:51:36.468Z,23.55
2018-06-02T05:54:02.428Z,23.39
2018-06-02T05:56:28.379Z,23.38
2018-06-02T05:58:54.315Z,24.23
2018-06-02T06:01:20.277Z,24.66
2018-06-02T06:03:46.245Z,24.72
2018-06-02T06:06:12.236Z,24.70
2018-06-02T06:08:38.185Z,25.52
2018-06-02T06:11:04.169Z,26.20
2018-06-02T06:13:30.134Z,26.60
2018-06-02T06:15:56.108Z,26.02
2018-06-02T06:18:22.068Z,25.83
2018-06-02T06:20:48.039Z,26.15
2018-06-02T06:23:13.995Z,25.42
2018-06-02T06:25:39.949Z,24.52
2018-06-02T06:28:05.881Z,24.58
2018-06-02T06:30:31.844Z,24.47
2018-06-02T06:32:57.835Z,24.55
2018-06-02T06:35:23.804Z,24.21
2018-06-02T06:37:49.816Z,24.20
2018-06-02T06:40:15.772Z,24.44
2018-06-02T06:42:41.737Z,24.59
2018-06-02T06:45:07.687Z,24.65
2018-06-02T06:47:33.636Z,24.65
2018-06-02T06:49:59.572Z,24.45
2018-06-02T06:52:25.551Z,24.39
2018-06-02T06:54:51.507Z,24.27
2018-06-02T06:57:17.769Z,24.51
2018-06-02T06:59:43.707Z,24.83
2018-06-02T07:02:09.642Z,25.01
2018-06-02T07:04:35.597Z,24.81
2018-06-02T07:07:01.529Z,24.85
2018-06-02T07:09:27.504Z,24.87
2018-06-02T07:11:53.547Z,24.82
2018-06-02T07:14:19.519Z,24.71
2018-06-02T07:16:45.458Z,24.89
2018-06-02T07:19:11.416Z,25.10
2018-06-02T07:21:38.293Z,25.21
2018-06-02T07:24:04.229Z,25.41
2018-06-02T07:26:30.205Z,25.57
2018-06-02T07:28:56.661Z,25.95
2018-06-02T07:31:22.644Z,26.05
2018-06-02T07:33:48.625Z,25.34
2018-06-02T07:36:14.842Z,25.20
2018-06-02T07:38:40.811Z,25.30
2018-06-02T07:41:06.809Z,25.01
2018-06-02T07:43:32.776Z,25.21
2018-06-02T07:45:58.844Z,25.03
2018-06-02T07:48:24.792Z,24.84
2018-06-02T07:50:50.766Z,24.95
2018-06-02T07:53:16.851Z,25.85
2018-06-02T07:55:42.803Z,25.71
2018-06-02T07:58:09.104Z,25.86
2018-06-02T08:00:35.096Z,25.91
2018-06-02T08:03:01.026Z,25.60
2018-06-02T08:05:26.991Z,25.46
2018-06-02T08:07:53.035Z,26.85
2018-06-02T08:10:19.026Z,27.37
2018-06-02T08:12:45.004Z,27.56
2018-06-02T08:15:10.976Z,27.56
2018-06-02T08:17:36.940Z,27.72
2018-06-02T08:20:02.908Z,27.66
2018-06-02T08:22:29.752Z,27.61
2018-06-02T08:24:55.719Z,26.63
2018-06-02T08:27:21.676Z,26.77
2018-06-02T08:29:48.665Z,26.43
2018-06-02T08:32:14.630Z,26.38
2018-06-02T08:34:45.246Z,26.38
2018-06-02T08:37:11.216Z,25.90
2018-06-02T08:39:38.246Z,26.06
2018-06-02T08:42:04.339Z,26.29
2018-06-02T08:44:30.318Z,26.06
2018-06-02T08:46:56.407Z,26.19
2018-06-02T08:49:22.741Z,25.59
2018-06-02T08:51:48.774Z,25.60
2018-06-02T08:54:14.716Z,25.77
2018-06-02T08:56:40.686Z,25.65
2018-06-02T08:59:06.620Z,25.38
2018-06-02T09:01:32.569Z,25.29
2018-06-02T09:03:58.529Z,25.07
2018-06-02T09:06:24.480Z,25.23
2018-06-02T09:08:50.446Z,25.36
2018-06-02T09:11:16.437Z,25.15
2018-06-02T09:13:42.385Z,25.19
2018-06-02T09:16:08.341Z,25.30
2018-06-02T09:18:34.294Z,25.03
2018-06-02T09:21:00.254Z,25.23
2018-06-02T09:23:26.210Z,25.38
2018-06-02T09:25:52.296Z,25.16
2018-06-02T09:28:18.297Z,25.21
2018-06-02T09:30:44.271Z,25.10
2018-06-02T09:33:10.217Z,24.80
2018-06-02T09:35:36.178Z,24.85
2018-06-02T09:38:02.156Z,24.70
2018-06-02T09:40:28.117Z,24.56
2018-06-02T09:42:54.115Z,24.86
2018-06-02T09:45:20.097Z,24.85
2018-06-02T09:47:46.207Z,24.48
2018-06-02T09:50:12.084Z,24.63
2018-06-02T09:52:38.035Z,24.88
2018-06-02T09:55:03.988Z,24.99
2018-06-02T09:57:29.943Z,24.98
2018-06-02T09:59:55.897Z,25.08
2018-06-02T10:02:21.887Z,24.97
2018-06-02T10:04:47.834Z,24.72
2018-06-02T10:07:13.826Z,24.38
2018-06-02T10:09:39.805Z,24.58
2018-06-02T10:12:05.762Z,24.75
2018-06-02T10:14:31.746Z,24.32
2018-06-02T10:16:57.689Z,24.25
2018-06-02T10:19:23.626Z,24.55
2018-06-02T10:21:49.588Z,24.45
2018-06-02T10:24:15.533Z,24.59
2018-06-02T10:26:41.874Z,24.51
2018-06-02T10:29:07.920Z,24.45
2018-06-02T10:31:33.936Z,24.75
2018-06-02T10:34:00.002Z,24.69
2018-06-02T10:36:27.094Z,24.91
2018-06-02T10:38:53.087Z,25.00
2018-06-02T10:41:19.226Z,25.04
2018-06-02T10:43:45.197Z,25.11
2018-06-02T10:46:11.152Z,25.29
2018-06-02T10:48:37.180Z,25.19
2018-06-02T10:51:03.160Z,25.38
2018-06-02T10:53:29.115Z,25.43
2018-06-02T10:55:55.081Z,25.26
2018-06-02T10:58:21.134Z,25.09
2018-06-02T11:00:47.063Z,25.02
2018-06-02T11:03:13.057Z,25.18
2018-06-02T11:05:39.025Z,25.25
2018-06-02T11:08:04.996Z,24.87
2018-06-02T11:10:30.934Z,24.84
2018-06-02T11:12:56.927Z,24.87
2018-06-02T11:15:22.924Z,24.97
2018-06-02T11:17:48.896Z,24.76
2018-06-02T11:20:14.844Z,25.00
2018-06-02T11:22:40.803Z,24.80
2018-06-02T11:25:06.746Z,24.86
2018-06-02T11:27:32.685Z,24.65
2018-06-02T11:29:58.621Z,24.61
2018-06-02T11:32:24.554Z,24.78
2018-06-02T11:34:50.587Z,24.85
2018-06-02T11:37:16.573Z,24.84
2018-06-02T11:39:42.544Z,24.97
2018-06-02T11:42:08.532Z,24.85
2018-06-02T11:44:34.498Z,24.81
2018-06-02T11:47:00.494Z,25.10
2018-06-02T11:49:26.483Z,24.98
2018-06-02T11:51:52.436Z,25.01
2018-06-02T11:54:18.417Z,25.08
2018-06-02T11:56:44.384Z,25.14
2018-06-02T11:59:10.320Z,24.91
2018-06-02T12:01:36.276Z,25.09
2018-06-02T12:04:02.336Z,24.92
2018-06-02T12:06:28.288Z,25.04
2018-06-02T12:08:54.279Z,24.96
2018-06-02T12:11:20.291Z,24.76
2018-06-02T12:13:46.274Z,24.71
2018-06-02T12:16:12.266Z,24.68
2018-06-02T12:18:38.291Z,24.76
2018-06-02T12:21:04.246Z,25.07
2018-06-02T12:23:30.236Z,25.05
2018-06-02T12:25:56.317Z,25.12
2018-06-02T12:28:22.315Z,24.95
2018-06-02T12:30:48.467Z,25.18
2018-06-02T12:33:14.486Z,25.13
2018-06-02T12:35:40.512Z,25.08
2018-06-02T12:38:06.537Z,25.05
2018-06-02T12:43:04.345Z,25.02
2018-06-02T12:45:31.519Z,25.06
2018-06-02T12:47:57.593Z,25.38
2018-06-02T12:50:23.606Z,25.38
2018-06-02T12:52:49.686Z,25.20
2018-06-02T12:55:15.726Z,25.32
2018-06-02T12:57:41.840Z,25.23
2018-06-02T13:00:08.014Z,25.29
2018-06-02T13:02:34.047Z,25.27
2018-06-02T13:05:00.270Z,25.31
2018-06-02T13:07:26.740Z,25.21
2018-06-02T13:09:52.779Z,25.11
2018-06-02T13:12:18.766Z,25.23
2018-06-02T13:14:44.708Z,25.28
2018-06-02T13:17:10.685Z,25.30
2018-06-02T13:19:36.643Z,25.33
2018-06-02T13:22:02.675Z,25.29
2018-06-02T13:24:28.654Z,25.28
2018-06-02T13:26:54.628Z,25.17
2018-06-02T13:29:20.792Z,25.15
2018-06-02T13:31:46.733Z,25.33
2018-06-02T13:34:12.754Z,25.51
2018-06-02T13:36:38.780Z,25.51
2018-06-02T13:39:04.769Z,25.40
2018-06-02T13:41:30.798Z,25.52
2018-06-02T13:43:56.775Z,25.58
2018-06-02T13:46:22.759Z,25.39
2018-06-02T13:48:48.785Z,25.04
2018-06-02T13:51:14.731Z,25.12
2018-06-02T13:53:40.680Z,25.02
2018-06-02T13:56:06.646Z,25.01
2018-06-02T13:58:32.602Z,25.23
2018-06-02T14:00:58.569Z,25.16
2018-06-02T14:03:24.497Z,25.22
2018-06-02T14:05:50.454Z,25.29
2018-06-02T14:08:16.418Z,25.30
2018-06-02T14:10:42.396Z,25.35
2018-06-02T14:13:08.610Z,25.31
2018-06-02T14:15:34.559Z,25.30
2018-06-02T14:18:00.519Z,25.26
2018-06-02T14:20:26.484Z,25.33
2018-06-02T14:22:52.442Z,25.42
2018-06-02T14:25:18.425Z,25.21
2018-06-02T14:27:44.459Z,25.44
2018-06-02T14:30:10.421Z,25.33
2018-06-02T14:32:36.369Z,25.33
2018-06-02T14:35:02.314Z,25.42
2018-06-02T14:37:28.388Z,25.46
2018-06-02T14:39:54.359Z,25.48
2018-06-02T14:42:21.114Z,25.45
2018-06-02T14:44:47.072Z,25.45
2018-06-02T14:47:13.023Z,25.24
2018-06-02T14:49:39.097Z,25.29
2018-06-02T14:52:05.118Z,25.31
2018-06-02T14:54:31.088Z,25.41
2018-06-02T14:56:57.188Z,25.49
2018-06-02T14:59:23.177Z,25.45
2018-06-02T15:01:49.137Z,25.50
2018-06-02T15:04:15.094Z,25.40
2018-06-02T15:06:41.082Z,25.45
2018-06-02T15:09:07.042Z,25.51
2018-06-02T15:11:33.045Z,25.48
2018-06-02T15:13:59.033Z,25.47
2018-06-02T15:16:25.077Z,25.49
2018-06-02T15:18:51.050Z,25.47
2018-06-02T15:21:17.068Z,25.40
2018-06-02T15:23:43.096Z,25.31
2018-06-02T15:26:09.060Z,25.52
2018-06-02T15:28:35.005Z,25.42
2018-06-02T15:31:01.011Z,25.51
2018-06-02T15:33:27.021Z,25.58
2018-06-02T15:35:53.056Z,25.64
2018-06-02T15:38:19.049Z,25.60
2018-06-02T15:40:45.038Z,25.53
2018-06-02T15:43:11.057Z,25.52
2018-06-02T15:45:37.332Z,25.56
2018-06-02T15:48:03.292Z,25.55
2018-06-02T15:50:29.276Z,25.53
2018-06-02T15:52:55.259Z,25.66
2018-06-02T15:55:21.237Z,25.60
2018-06-02T15:57:47.218Z,25.51
2018-06-02T16:00:13.232Z,25.50
2018-06-02T16:02:39.244Z,25.57
2018-06-02T16:05:05.218Z,25.49
2018-06-02T16:07:31.213Z,25.45
2018-06-02T16:09:57.309Z,25.49
2018-06-02T16:12:23.345Z,25.62
2018-06-02T16:14:49.295Z,25.55
2018-06-02T16:17:15.262Z,25.54
2018-06-02T16:19:41.333Z,25.39
2018-06-02T16:22:07.340Z,25.21
2018-06-02T16:24:33.293Z,25.27
2018-06-02T16:26:59.232Z,25.49
2018-06-02T16:29:25.203Z,25.54
2018-06-02T16:31:51.179Z,25.51
2018-06-02T16:34:17.128Z,25.49
2018-06-02T16:36:43.104Z,25.28
2018-06-02T16:39:09.091Z,25.29
2018-06-02T16:41:35.331Z,25.24
2018-06-02T16:44:01.709Z,25.31
2018-06-02T16:46:27.748Z,25.31
2018-06-02T16:48:53.983Z,25.16
2018-06-02T16:51:20.362Z,25.26
2018-06-02T16:53:47.683Z,25.28
2018-06-02T16:56:14.518Z,25.30
2018-06-02T16:58:40.804Z,25.29
2018-06-02T17:01:06.973Z,25.14
2018-06-02T17:03:33.197Z,25.28
2018-06-02T17:05:59.493Z,25.08
2018-06-02T17:08:25.743Z,25.11
2018-06-02T17:10:52.912Z,25.02
2018-06-02T17:13:19.146Z,24.88
2018-06-02T17:15:45.121Z,24.91
2018-06-02T17:18:11.100Z,24.85
2018-06-02T17:20:37.163Z,24.89
2018-06-02T17:23:03.192Z,24.97
2018-06-02T17:25:29.306Z,24.91
2018-06-02T17:27:55.341Z,25.03
2018-06-02T17:30:21.375Z,25.08
2018-06-02T17:32:47.433Z,25.11
2018-06-02T17:35:13.445Z,25.04
2018-06-02T17:37:39.467Z,25.07
2018-06-02T17:40:05.604Z,24.94
2018-06-02T17:42:31.704Z,25.02
2018-06-02T17:44:57.661Z,24.79
2018-06-02T17:47:23.681Z,24.97
2018-06-02T17:49:49.716Z,24.95
2018-06-02T17:52:15.876Z,24.89
2018-06-02T17:54:41.851Z,24.81
2018-06-02T17:57:07.933Z,24.56
2018-06-02T17:59:33.937Z,24.44
2018-06-02T18:02:00.137Z,24.69
2018-06-02T18:04:26.104Z,24.71
2018-06-02T18:06:52.210Z,24.65
2018-06-02T18:09:18.194Z,24.59
2018-06-02T18:11:45.212Z,24.70
2018-06-02T18:14:13.288Z,24.60
2018-06-02T18:16:39.447Z,24.60
2018-06-02T18:19:05.498Z,24.72
2018-06-02T18:21:31.486Z,24.51
2018-06-02T18:23:57.588Z,24.71
2018-06-02T18:26:56.856Z,24.27
2018-06-02T18:29:22.906Z,24.28
2018-06-02T18:31:48.916Z,24.45
2018-06-02T18:34:14.851Z,24.55
2018-06-02T18:36:40.968Z,24.19
2018-06-02T18:39:10.853Z,24.08
2018-06-02T18:41:36.851Z,24.16
2018-06-02T18:44:02.824Z,23.94
2018-06-02T18:46:28.832Z,23.83
2018-06-02T18:48:54.812Z,23.81
2018-06-02T18:51:20.843Z,23.70
2018-06-02T18:53:46.929Z,23.86
2018-06-02T18:56:12.913Z,23.54
2018-06-02T18:58:38.968Z,23.51
2018-06-02T19:01:05.050Z,23.38
2018-06-02T19:03:30.995Z,23.28
2018-06-02T19:05:56.985Z,23.62
2018-06-02T19:08:22.990Z,23.60
2018-06-02T19:10:48.951Z,23.36
2018-06-02T19:13:14.997Z,22.89
2018-06-02T19:15:40.957Z,22.88
2018-06-02T19:18:07.124Z,22.74
2018-06-02T19:20:33.255Z,22.74
2018-06-02T19:22:59.275Z,22.88
2018-06-02T19:25:25.264Z,22.44
2018-06-02T19:27:51.241Z,22.73
2018-06-02T19:30:17.245Z,22.59
2018-06-02T19:32:43.246Z,22.57
2018-06-02T19:35:09.238Z,22.63
2018-06-02T19:37:35.190Z,22.68
2018-06-02T19:40:01.269Z,22.79
2018-06-02T19:42:27.221Z,22.92
2018-06-02T19:44:53.217Z,22.77
2018-06-02T19:47:19.204Z,22.82
2018-06-02T19:49:45.156Z,23.11
2018-06-02T19:52:11.129Z,23.09
2018-06-02T19:54:37.109Z,23.04
2018-06-02T19:57:03.132Z,22.90
2018-06-02T19:59:29.121Z,22.94
2018-06-02T20:01:55.163Z,23.04
2018-06-02T20:04:21.187Z,22.98
2018-06-02T20:06:47.166Z,23.10
2018-06-02T20:09:13.201Z,23.00
2018-06-02T20:11:39.228Z,22.74
2018-06-02T20:14:05.323Z,22.78
2018-06-02T20:16:31.331Z,22.96
2018-06-02T20:18:57.362Z,22.94
2018-06-02T20:21:23.343Z,23.03
2018-06-02T20:23:49.317Z,22.95
2018-06-02T20:26:15.297Z,22.95
2018-06-02T20:28:41.312Z,23.01
2018-06-02T20:31:07.267Z,22.79
2018-06-02T20:33:33.250Z,22.75
2018-06-02T20:35:59.273Z,22.87
2018-06-02T20:38:25.289Z,22.82
2018-06-02T20:40:51.277Z,22.64
2018-06-02T20:43:17.268Z,22.59
2018-06-02T20:45:43.303Z,22.53
2018-06-02T20:48:09.242Z,22.62
2018-06-02T20:50:35.184Z,22.62
2018-06-02T20:53:01.145Z,22.72
2018-06-02T20:55:27.130Z,22.60
2018-06-02T20:57:53.110Z,22.79
2018-06-02T21:00:19.125Z,22.85
2018-06-02T21:02:45.139Z,22.84
2018-06-02T21:05:11.184Z,22.89
2018-06-02T21:07:37.131Z,22.59
2018-06-02T21:10:03.139Z,22.58
2018-06-02T21:12:29.139Z,22.45
2018-06-02T21:14:55.135Z,22.50
2018-06-02T21:17:21.399Z,22.45
2018-06-02T21:19:47.394Z,22.90
2018-06-02T21:22:13.349Z,22.61
2018-06-02T21:24:39.305Z,22.73
2018-06-02T21:27:05.268Z,22.95
2018-06-02T21:29:31.220Z,22.84
2018-06-02T21:31:57.174Z,22.71
2018-06-02T21:34:23.151Z,22.68
2018-06-02T21:36:49.100Z,22.66
2018-06-02T21:39:15.089Z,22.74
2018-06-02T21:41:41.098Z,22.44
2018-06-02T21:44:07.081Z,22.57
2018-06-02T21:46:33.054Z,22.85
2018-06-02T21:48:59.052Z,22.57
2018-06-02T21:51:25.018Z,22.42
2018-06-02T21:53:50.981Z,22.77
2018-06-02T21:56:16.973Z,22.64
2018-06-02T21:58:43.040Z,22.73
2018-06-02T22:01:09.001Z,22.90
2018-06-02T22:03:34.968Z,22.94
2018-06-02T22:06:00.981Z,23.02
2018-06-02T22:08:26.932Z,22.99
2018-06-02T22:10:52.899Z,23.11
2018-06-02T22:13:18.842Z,23.05
2018-06-02T22:15:44.780Z,23.12
2018-06-02T22:18:10.729Z,23.23
2018-06-02T22:20:36.744Z,23.17
2018-06-02T22:23:02.677Z,22.96
2018-06-02T22:25:28.650Z,23.07
2018-06-02T22:27:54.610Z,22.95
2018-06-02T22:30:20.564Z,23.01
2018-06-02T22:32:46.589Z,23.05
2018-06-02T22:35:12.590Z,23.07
2018-06-02T22:37:38.563Z,22.91
2018-06-02T22:40:04.519Z,22.78
2018-06-02T22:42:30.543Z,22.91
2018-06-02T22:44:56.508Z,22.91
2018-06-02T22:47:22.509Z,23.10
2018-06-02T22:49:48.481Z,23.04
2018-06-02T22:52:14.413Z,22.87
2018-06-02T22:54:40.394Z,22.77
2018-06-02T22:57:06.350Z,22.65
2018-06-02T22:59:32.300Z,22.21
2018-06-02T23:01:58.272Z,22.29
2018-06-02T23:04:24.221Z,21.99
2018-06-02T23:06:50.193Z,21.70
2018-06-02T23:09:16.155Z,21.70
2018-06-02T23:11:42.138Z,21.63
2018-06-02T23:14:08.099Z,21.38
2018-06-02T23:16:34.066Z,21.60
2018-06-02T23:19:00.040Z,21.46
2018-06-02T23:21:25.997Z,21.45
2018-06-02T23:23:51.936Z,21.60
2018-06-02T23:26:17.945Z,21.82
2018-06-02T23:28:43.881Z,21.76
2018-06-02T23:31:09.825Z,21.70
2018-06-02T23:33:35.773Z,21.98
2018-06-02T23:36:01.740Z,21.88
2018-06-02T23:38:27.684Z,22.13
2018-06-02T23:40:53.633Z,21.80
2018-06-02T23:43:19.583Z,21.82
2018-06-02T23:45:45.532Z,21.84
2018-06-02T23:48:11.468Z,21.67
2018-06-02T23:50:37.430Z,21.51
2018-06-02T23:53:03.371Z,21.16
2018-06-02T23:55:29.323Z,21.27
2018-06-02T23:57:55.257Z,21.22
